Jennifer — WDF6480 — position and weather

sailwx.info

Track history (hours):
 
Tides and Currents Weather Stations Pressure Air Temp Water Temp Dewpoint Dewpoint Depression Visibility Wind Speed Wind Dir Waves Ship Positions

Jennifer

Owner: John W. Stone Oil Distributor, L.L.C., Gretna, LA. More information available from US FCC via Universal Licensing System and Coast Guard Vessel Documentation Center.

Last reported at 2015-Aug-31 14:27 UTC. Time now 2015-Aug-31 15:23 UTC.
Position N 29°34' W 090°30'.

Length 17 m; draft 3 m.

Type: Tug. MMSI: 367474690.

Date/timePositionNaut miles runAvg speedWind from/ knotsBaromVisibWave heightAir tempDewpointWater temp
2015-Aug-31 14:27N 29°34' W 090°30'5 5.8
2015-Aug-31 13:33N 29°35' W 090°35'5 4.9
2015-Aug-31 12:33N 29°36' W 090°41'4 3.7
2015-Aug-31 11:33N 29°34' W 090°44'0 0.5
2015-Aug-31 10:33N 29°34' W 090°45'0 0.0
2015-Aug-31 09:33N 29°34' W 090°45'2 1.8
2015-Aug-31 08:33N 29°32' W 090°46'1 0.6
2015-Aug-31 07:33N 29°32' W 090°46'6 5.9
2015-Aug-31 06:31N 29°33' W 090°53'  
2015-Aug-27 19:31N 29°33' W 090°54'6 6.4
2015-Aug-27 18:33N 29°32' W 090°47'5 5.0
2015-Aug-27 17:33N 29°35' W 090°43'2 1.7
2015-Aug-27 16:33N 29°37' W 090°42'1 0.9
2015-Aug-27 15:34N 29°36' W 090°41'5 4.7
2015-Aug-27 14:32N 29°35' W 090°36'34 1.5
2015-Aug-26 15:31N 29°54' W 090°05'6 0.1
2015-Aug-24 12:30N 29°49' W 090°04'4 4.2
2015-Aug-24 11:29N 29°53' W 090°04'2 1.9
2015-Aug-24 10:28N 29°55' W 090°05'0 0.0
2015-Aug-24 09:32N 29°55' W 090°05'0 0.0
2015-Aug-24 08:33N 29°55' W 090°05'0 0.0
2015-Aug-24 07:32N 29°55' W 090°05'0 0.1
2015-Aug-24 06:32N 29°55' W 090°05'0 0.1
2015-Aug-24 05:33N 29°55' W 090°05'1 1.0
2015-Aug-24 04:27N 29°55' W 090°04'2 2.3
2015-Aug-24 03:32N 29°57' W 090°03'2 0.1
2015-Aug-23 03:14N 29°56' W 090°04'0 0.0
2015-Aug-23 02:24N 29°56' W 090°04'3 1.6
2015-Aug-23 00:31N 29°56' W 090°00'0 0.0
2015-Aug-21 23:11N 29°56' W 090°00'3 5.0
2015-Aug-21 22:32N 29°56' W 090°04'0 0.0
2015-Aug-21 21:31N 29°56' W 090°04'0 0.0
2015-Aug-21 20:30N 29°56' W 090°04'0 0.1
2015-Aug-21 19:32N 29°55' W 090°04'0 0.0
2015-Aug-21 18:30N 29°55' W 090°04'1 0.8
2015-Aug-21 17:33N 29°56' W 090°03'  
Track history (hours):
 
Tides and Currents Weather Stations Pressure Air Temp Water Temp Dewpoint Dewpoint Depression Visibility Wind Speed Wind Dir Waves Ship Positions

Jennifer

Owner: John W. Stone Oil Distributor, L.L.C., Gretna, LA. More information available from US FCC via Universal Licensing System and Coast Guard Vessel Documentation Center.

Last reported at 2015-Aug-31 14:27 UTC. Time now 2015-Aug-31 15:23 UTC.
Position N 29°34' W 090°30'.

Length 17 m; draft 3 m.

Type: Tug. MMSI: 367474690.

Date/timePositionNaut miles runAvg speedWind from/ knotsBaromVisibWave heightAir tempDewpointWater temp
2015-Aug-31 14:27N 29°34' W 090°30'5 5.8
2015-Aug-31 13:33N 29°35' W 090°35'5 4.9
2015-Aug-31 12:33N 29°36' W 090°41'4 3.7
2015-Aug-31 11:33N 29°34' W 090°44'0 0.5
2015-Aug-31 10:33N 29°34' W 090°45'0 0.0
2015-Aug-31 09:33N 29°34' W 090°45'2 1.8
2015-Aug-31 08:33N 29°32' W 090°46'1 0.6
2015-Aug-31 07:33N 29°32' W 090°46'6 5.9
2015-Aug-31 06:31N 29°33' W 090°53'  
2015-Aug-27 19:31N 29°33' W 090°54'6 6.4
2015-Aug-27 18:33N 29°32' W 090°47'5 5.0
2015-Aug-27 17:33N 29°35' W 090°43'2 1.7
2015-Aug-27 16:33N 29°37' W 090°42'1 0.9
2015-Aug-27 15:34N 29°36' W 090°41'5 4.7
2015-Aug-27 14:32N 29°35' W 090°36'34 1.5
2015-Aug-26 15:31N 29°54' W 090°05'6 0.1
2015-Aug-24 12:30N 29°49' W 090°04'4 4.2
2015-Aug-24 11:29N 29°53' W 090°04'2 1.9
2015-Aug-24 10:28N 29°55' W 090°05'0 0.0
2015-Aug-24 09:32N 29°55' W 090°05'0 0.0
2015-Aug-24 08:33N 29°55' W 090°05'0 0.0
2015-Aug-24 07:32N 29°55' W 090°05'0 0.1
2015-Aug-24 06:32N 29°55' W 090°05'0 0.1
2015-Aug-24 05:33N 29°55' W 090°05'1 1.0
2015-Aug-24 04:27N 29°55' W 090°04'2 2.3
2015-Aug-24 03:32N 29°57' W 090°03'2 0.1
2015-Aug-23 03:14N 29°56' W 090°04'0 0.0
2015-Aug-23 02:24N 29°56' W 090°04'3 1.6
2015-Aug-23 00:31N 29°56' W 090°00'0 0.0
2015-Aug-21 23:11N 29°56' W 090°00'3 5.0
2015-Aug-21 22:32N 29°56' W 090°04'0 0.0
2015-Aug-21 21:31N 29°56' W 090°04'0 0.0
2015-Aug-21 20:30N 29°56' W 090°04'0 0.1
2015-Aug-21 19:32N 29°55' W 090°04'0 0.0
2015-Aug-21 18:30N 29°55' W 090°04'1 0.8
2015-Aug-21 17:33N 29°56' W 090°03'  

Dump ship's entire track history